Latest Weather Observations for Forbes

IDN60801

Issued at 10:05 pm EDT Monday 20 October 2014 (issued every 30 minutes, with the page automatically refreshed every 10 minutes)

About weather observations | Map of weather stations | Latest weather observations for NSW | Other Formats
Station Details ID: 065103 Name: FORBES AIRPORT AWS Lat: -33.36 Lon: 147.92 Height: 230.4 m
Data from the previous 72 hours. | See also: Recent months at Forbes
Date/Time
EDT
Temp
°C
App
Temp
°C
Dew
Point
Rel
Hum
%
Delta-T
°C
Wind Press
QNH
hPa
Press
MSL
hPa
Rain
since 9 am
mm
Dir
 
Spd
km/h
Gust
km/h
Spd
kts
Gust
kts
20/10:00pm 18.3 14.9 10.7 61 4.1 ESE 19 26 10 14 1024.8 1024.4 0.0
20/09:30pm 19.9 16.6 11.7 59 4.6 ESE 20 32 11 17 1024.2 1023.8 0.0
20/09:00pm 20.7 17.7 12.4 59 4.7 ESE 20 32 11 17 1023.8 1023.4 0.0
20/08:30pm 21.6 17.1 12.5 56 5.2 ESE 28 37 15 20 1023.0 1022.6 0.0
20/08:16pm 22.1 17.6 12.6 55 5.5 ESE 28 48 15 26 1022.6 1022.2 0.0
20/08:00pm 22.6 18.5 12.8 54 5.6 ESE 26 39 14 21 1022.3 1022.0 0.0
20/07:30pm 24.0 19.6 12.9 50 6.5 SE 28 41 15 22 1021.8 1021.5 0.0
20/07:00pm 25.7 20.9 12.9 45 7.5 SE 30 41 16 22 1021.3 1021.0 0.0
20/06:45pm 27.6 22.8 12.8 40 8.7 ESE 30 48 16 26 1020.9 1020.5 0.0
20/06:32pm 30.4 24.0 8.7 26 12.2 S 32 43 17 23 1020.3 1019.9 0.0
20/06:30pm 32.0 28.5 1.2 14 15.4 SSW 9 17 5 9 1020.2 1019.8 0.0
20/06:00pm 32.8 29.8 1.8 14 15.7 N 7 13 4 7 1020.0 1019.6 0.0
20/05:30pm 33.6 29.4 1.4 13 16.3 SW 13 17 7 9 1020.2 1019.8 0.0
20/05:00pm 33.4 29.3 0.1 12 16.4 NW 11 17 6 9 1020.2 1019.8 0.0
20/04:30pm 33.5 29.5 0.2 12 16.5 S 11 17 6 9 1020.3 1019.9 0.0
20/04:00pm 33.4 29.5 1.3 13 16.1 E 11 17 6 9 1020.5 1020.1 0.0
20/03:30pm 33.6 30.3 2.4 14 16.0 NE 9 17 5 9 1020.9 1020.5 0.0
20/03:00pm 33.1 29.3 2.0 14 15.8 SW 11 24 6 13 1021.3 1021.0 0.0
20/02:30pm 32.0 28.5 1.2 14 15.4 E 9 20 5 11 1021.9 1021.6 0.0
20/02:00pm 32.5 29.0 3.5 16 15.0 W 11 19 6 10 1022.5 1022.1 0.0
20/01:30pm 31.7 28.3 1.9 15 15.0 SW 9 24 5 13 1023.0 1022.6 0.0
20/01:00pm 31.4 28.3 3.4 17 14.4 SW 9 15 5 8 1023.2 1022.8 0.0
20/12:30pm 30.9 26.5 4.6 19 13.8 SW 17 22 9 12 1023.6 1023.2 0.0
20/12:00pm 31.1 27.1 4.8 19 13.8 SW 15 24 8 13 1024.0 1023.6 0.0
20/11:30am 30.6 27.6 7.7 24 12.6 SW 13 20 7 11 1024.3 1023.9 0.0
20/11:00am 29.4 26.0 6.1 23 12.4 W 13 19 7 10 1024.6 1024.2 0.0
20/10:30am 28.1 25.3 6.8 26 11.4 NW 11 20 6 11 1024.8 1024.4 0.0
20/10:00am 26.1 23.7 7.2 30 10.0 NW 9 17 5 9 1024.9 1024.5 0.0
20/09:30am 24.6 22.3 7.3 33 9.2 N 9 13 5 7 1024.8 1024.4 0.0
20/09:00am 21.8 20.5 9.3 45 6.7 N 6 9 3 5 1024.6 1024.2 0.0
20/08:30am 19.5 18.1 9.7 53 5.3 NE 7 9 4 5 1024.5 1024.1 0.0
20/08:00am 16.6 15.7 10.5 67 3.3 ENE 6 7 3 4 1024.3 1023.9 0.0
20/07:30am 14.0 12.5 10.4 79 1.9 ENE 9 11 5 6 1024.0 1023.6 0.0
20/07:00am 10.4 8.9 9.2 92 0.6 ENE 7 9 4 5 1023.6 1023.2 0.0
20/06:30am 9.7 7.9 8.0 89 0.8 SE 7 9 4 5 1023.3 1022.9 0.0
20/06:00am 10.1 8.4 8.2 88 0.9 ESE 7 7 4 4 1022.8 1022.4 0.0
20/05:30am 10.8 9.2 8.6 86 1.1 ENE 7 9 4 5 1022.3 1022.0 0.0
20/05:00am 11.0 9.0 8.8 86 1.1 ENE 9 11 5 6 1022.0 1021.7 0.0
20/04:30am 11.0 9.4 8.8 86 1.1 NE 7 9 4 5 1022.0 1021.7 0.0
20/04:00am 11.7 10.1 8.9 83 1.4 ENE 7 9 4 5 1022.1 1021.8 0.0
20/03:30am 11.9 10.0 8.9 82 1.5 E 9 9 5 5 1022.5 1022.1 0.0
20/03:00am 12.0 10.4 8.8 81 1.6 ESE 7 7 4 4 1022.7 1022.3 0.0
20/02:30am 12.9 10.7 9.5 80 1.8 NE 11 11 6 6 1022.7 1022.3 0.0
20/02:00am 12.5 12.6 10.2 86 1.2 CALM 0 0 0 0 1023.1 1022.7 0.0
20/01:30am 11.5 11.2 8.5 82 1.5 CALM 0 0 0 0 1023.3 1022.9 0.0
20/01:00am 13.0 13.1 10.2 83 1.5 CALM 0 0 0 0 1023.4 1023.0 0.0
20/12:30am 13.6 13.6 9.8 78 2.0 CALM 0 0 0 0 1023.6 1023.2 0.0
20/12:00am 14.1 13.3 9.7 75 2.3 NNE 4 7 2 4 1023.5 1023.1 0.0
 
Date/Time
EDT
Temp
°C
App
Temp
°C
Dew
Point
Rel
Hum
%
Delta-T
°C
Wind Press
QNH
hPa
Press
MSL
hPa
Rain
since 9 am
mm
Dir
 
Spd
km/h
Gust
km/h
Spd
kts
Gust
kts
19/11:30pm 14.7 14.7 9.9 73 2.5 CALM 0 0 0 0 1023.7 1023.3 0.0
19/11:00pm 15.2 15.1 9.6 69 2.9 CALM 0 0 0 0 1023.6 1023.2 0.0
19/10:30pm 15.3 14.1 9.7 69 2.9 E 6 7 3 4 1023.5 1023.1 0.0
19/10:00pm 17.2 15.7 9.1 59 4.2 ENE 7 9 4 5 1023.5 1023.1 0.0
19/09:30pm 17.1 15.6 11.8 71 2.9 NE 11 13 6 7 1023.3 1022.9 0.0
19/09:00pm 18.0 16.9 10.6 62 4.0 NE 7 7 4 4 1023.4 1023.0 0.0
19/08:30pm 18.0 17.9 9.4 57 4.6 CALM 0 0 0 0 1023.2 1022.8 0.0
19/08:00pm 20.9 18.5 5.3 36 7.8 E 7 11 4 6 1022.7 1022.3 0.0
19/07:30pm 22.4 22.6 10.5 47 6.6 CALM 0 0 0 0 1022.3 1022.0 0.0
19/07:00pm 25.9 24.7 4.4 25 10.9 CALM 0 0 0 0 1022.2 1021.9 0.0
19/06:30pm 28.5 27.1 3.4 20 12.7 CALM 0 0 0 0 1022.0 1021.7 0.0
19/06:00pm 28.7 25.8 2.8 19 13.0 N 7 9 4 5 1021.6 1021.3 0.0
19/05:30pm 28.5 25.4 3.4 20 12.7 N 9 15 5 8 1021.6 1021.3 0.0
19/05:00pm 29.2 26.6 3.2 19 13.1 NNE 6 13 3 7 1021.6 1021.3 0.0
19/04:30pm 29.2 26.4 3.2 19 13.2 W 7 11 4 6 1021.8 1021.5 0.0
19/04:00pm 29.4 26.3 3.4 19 13.2 NNW 9 17 5 9 1022.1 1021.8 0.0
19/03:30pm 29.3 25.9 4.0 20 13.0 N 11 17 6 9 1022.5 1022.1 0.0
19/03:00pm 28.1 25.3 3.0 20 12.6 N 7 13 4 7 1023.0 1022.6 0.0
19/02:30pm 28.6 25.2 4.2 21 12.5 N 11 22 6 12 1023.5 1023.1 0.0
19/02:00pm 27.9 25.2 2.9 20 12.5 NNW 6 13 3 7 1024.1 1023.7 0.0
19/01:30pm 27.7 24.2 3.4 21 12.3 NW 11 17 6 9 1024.4 1024.0 0.0
19/01:00pm 27.0 23.7 4.7 24 11.4 WNW 11 19 6 10 1024.8 1024.4 0.0
19/12:30pm 26.8 23.9 4.6 24 11.4 N 9 19 5 10 1025.0 1024.6 0.0
19/12:00pm 25.5 21.8 4.6 26 10.6 NNW 13 22 7 12 1025.3 1025.0 0.0
19/11:30am 25.3 21.5 6.0 29 10.0 N 15 22 8 12 1025.7 1025.4 0.0
19/11:00am 24.2 21.4 6.9 33 9.0 N 11 19 6 10 1026.4 1026.1 0.0
19/10:30am 22.7 19.6 7.3 37 8.1 NNE 13 17 7 9 1026.7 1026.4 0.0
19/10:00am 21.6 19.5 8.1 42 7.1 ENE 9 13 5 7 1027.1 1026.7 0.0
19/09:30am 19.7 18.3 9.6 52 5.4 ENE 7 11 4 6 1027.3 1026.9 0.0
19/09:00am 17.1 15.3 8.0 55 4.6 ENE 7 11 4 6 1027.3 1026.9 0.0
19/08:30am 15.4 13.8 8.2 62 3.7 ENE 6 7 3 4 1027.3 1026.9 0.0
19/08:00am 13.8 13.7 9.5 75 2.2 CALM 0 0 0 0 1027.1 1026.7 0.0
19/07:30am 11.6 11.4 9.2 85 1.2 CALM 0 0 0 0 1026.6 1026.3 0.0
19/07:00am 8.1 7.5 7.3 95 0.4 CALM 0 0 0 0 1026.2 1025.9 0.0
19/06:30am 7.1 6.2 6.2 94 0.4 CALM 0 0 0 0 1025.8 1025.5 0.0
19/06:00am 6.9 5.9 5.8 93 0.5 CALM 0 0 0 0 1025.4 1025.1 0.0
19/05:30am 7.3 6.4 6.1 92 0.5 CALM 0 0 0 0 1025.0 1024.6 0.0
19/05:00am 8.0 6.7 6.1 88 0.9 ENE 2 7 1 4 1024.9 1024.5 0.0
19/04:30am 8.2 5.1 7.1 93 0.5 E 13 15 7 8 1024.7 1024.3 0.0
19/04:00am 6.9 5.9 5.7 92 0.5 CALM 0 0 0 0 1025.1 1024.8 0.0
19/03:30am 7.6 5.4 6.2 91 0.6 NE 7 13 4 7 1025.3 1025.0 0.0
19/03:00am 8.6 7.9 7.1 90 0.7 CALM 0 7 0 4 1025.1 1024.8 0.0
19/02:30am 8.7 7.9 6.7 87 0.9 CALM 0 0 0 0 1025.3 1025.0 0.0
19/02:00am 9.5 7.5 6.9 84 1.2 S 7 7 4 4 1025.4 1025.1 0.0
19/01:30am 9.7 9.2 7.8 88 0.9 CALM 0 0 0 0 1025.8 1025.5 0.0
19/01:00am 9.4 7.3 6.5 82 1.4 N 7 7 4 4 1025.9 1025.6 0.0
19/12:30am 10.3 9.2 6.8 79 1.7 E 2 7 1 4 1025.9 1025.6 0.0
19/12:00am 11.7 9.4 7.6 76 2.0 E 9 11 5 6 1025.8 1025.5 0.0
 
Date/Time
EDT
Temp
°C
App
Temp
°C
Dew
Point
Rel
Hum
%
Delta-T
°C
Wind Press
QNH
hPa
Press
MSL
hPa
Rain
since 9 am
mm
Dir
 
Spd
km/h
Gust
km/h
Spd
kts
Gust
kts
18/11:30pm 12.5 12.1 8.2 75 2.1 CALM 0 0 0 0 1025.9 1025.6 0.0
18/11:00pm 11.6 9.7 6.7 72 2.3 ESE 6 9 3 5 1026.0 1025.7 0.0
18/10:30pm 14.0 11.2 6.8 62 3.5 E 11 13 6 7 1026.0 1025.7 0.0
18/10:00pm 13.9 11.2 7.4 65 3.2 E 11 13 6 7 1026.1 1025.8 0.0
18/09:30pm 14.2 12.0 7.9 66 3.2 E 9 11 5 6 1026.0 1025.7 0.0
18/09:00pm 16.2 13.5 7.2 55 4.5 E 11 13 6 7 1025.7 1025.4 0.0
18/08:30pm 17.4 14.9 6.6 49 5.4 ESE 9 11 5 6 1025.4 1025.1 0.0
18/08:00pm 18.5 15.5 6.0 44 6.2 ESE 11 11 6 6 1025.1 1024.8 0.0
18/07:30pm 19.8 17.0 5.1 38 7.3 ESE 9 11 5 6 1024.6 1024.2 0.0
18/07:00pm 21.3 18.5 5.2 35 8.0 ESE 9 11 5 6 1024.2 1023.8 0.0
18/06:30pm 22.5 19.1 4.1 30 9.1 SSE 11 15 6 8 1024.0 1023.6 0.0
18/06:00pm 23.7 20.1 3.1 26 10.0 SE 11 15 6 8 1023.9 1023.5 0.0
18/05:30pm 24.0 21.1 2.8 25 10.3 E 7 13 4 7 1023.7 1023.3 0.0
18/05:00pm 24.5 21.1 3.8 26 10.3 S 11 17 6 9 1023.9 1023.5 0.0
18/04:30pm 24.2 21.3 4.6 28 9.9 ESE 9 17 5 9 1024.1 1023.7 0.0
18/04:00pm 24.5 21.3 5.3 29 9.8 S 11 15 6 8 1024.2 1023.8 0.0
18/03:30pm 24.3 21.2 5.6 30 9.6 ESE 11 22 6 12 1024.5 1024.1 0.0
18/03:00pm 23.9 21.4 4.8 29 9.6 ENE 7 17 4 9 1025.0 1024.6 0.0
18/02:30pm 23.7 20.9 5.1 30 9.4 ESE 9 15 5 8 1025.4 1025.1 0.0
18/02:00pm 22.8 20.0 3.4 28 9.4 ESE 7 13 4 7 1025.9 1025.6 0.0
18/01:30pm 22.1 18.4 4.6 32 8.7 NE 13 20 7 11 1026.1 1025.8 0.0
18/01:00pm 21.9 18.9 4.0 31 8.7 NE 9 17 5 9 1026.4 1026.1 0.0
18/12:30pm 22.2 19.6 6.0 35 8.3 NE 9 22 5 12 1027.0 1026.6 0.0
18/12:00pm 20.6 17.7 6.5 40 7.1 NNE 11 20 6 11 1027.5 1027.1 0.0
18/11:30am 20.1 17.7 6.8 42 6.8 E 9 15 5 8 1028.0 1027.6 0.0
18/11:00am 19.4 17.1 7.5 46 6.1 NNE 9 13 5 7 1028.3 1027.9 0.0
18/10:30am 18.3 15.6 7.4 49 5.6 NE 11 19 6 10 1028.4 1028.0 0.0
18/10:00am 17.8 14.8 7.5 51 5.2 ENE 13 20 7 11 1028.7 1028.3 0.0
18/09:30am 16.4 14.1 7.6 56 4.5 E 9 15 5 8 1029.1 1028.8 0.0
18/09:00am 15.0 12.0 7.5 61 3.7 ENE 13 22 7 12 1028.8 1028.5 0.0
18/08:30am 13.8 11.3 8.2 69 2.8 E 11 15 6 8 1028.4 1028.0 0.0
18/08:00am 12.0 9.8 9.2 83 1.4 ENE 11 13 6 7 1027.8 1027.4 0.0
18/07:30am 9.8 8.2 8.9 94 0.4 E 7 9 4 5 1027.8 1027.4 0.0
18/07:00am 5.5 4.4 4.9 96 0.3 CALM 0 0 0 0 1027.5 1027.1 0.0
18/06:30am 4.7 2.2 3.8 94 0.4 E 6 6 3 3 1027.0 1026.6 0.0
18/06:00am 5.4 2.5 4.8 96 0.3 S 9 11 5 6 1026.6 1026.3 0.0
18/05:30am 5.8 3.0 5.1 95 0.3 S 9 9 5 5 1026.3 1026.0 0.0
18/05:00am 6.4 3.7 5.5 94 0.4 S 9 9 5 5 1026.0 1025.7 0.0
18/04:30am 6.8 4.7 5.7 93 0.5 ENE 6 6 3 3 1025.6 1025.3 0.0
18/04:00am 7.6 5.4 6.2 91 0.6 E 7 9 4 5 1025.4 1025.1 0.0
18/03:30am 7.3 4.3 5.8 90 0.7 E 11 13 6 7 1025.3 1025.0 0.0
18/03:00am 8.1 5.2 6.4 89 0.8 E 11 11 6 6 1025.4 1025.1 0.0
18/02:30am 9.1 6.2 6.5 84 1.2 E 11 13 6 7 1025.5 1025.2 0.0
18/02:00am 9.3 6.4 6.7 84 1.2 E 11 13 6 7 1025.5 1025.2 0.0
18/01:30am 10.7 7.5 7.0 78 1.8 E 13 19 7 10 1025.4 1025.1 0.0
18/01:00am 11.3 7.8 7.0 75 2.1 ESE 15 22 8 12 1025.3 1025.0 0.0
18/12:30am 11.3 8.0 6.6 73 2.2 SE 13 17 7 9 1025.4 1025.1 0.0
18/12:00am 8.5 5.9 6.1 85 1.1 SE 9 9 5 5 1025.3 1025.0 0.0
 
Date/Time
EDT
Temp
°C
App
Temp
°C
Dew
Point
Rel
Hum
%
Delta-T
°C
Wind Press
QNH
hPa
Press
MSL
hPa
Rain
since 9 am
mm
Dir
 
Spd
km/h
Gust
km/h
Spd
kts
Gust
kts
17/11:30pm 8.9 6.8 6.7 86 1.0 SE 7 11 4 6 1025.1 1024.8 0.0
17/11:00pm 9.6 9.0 7.4 86 1.1 CALM 0 0 0 0 1024.9 1024.5 0.0
17/10:30pm 10.1 9.5 7.2 82 1.4 CALM 0 0 0 0 1024.8 1024.4 0.0

Other Formats:

Comma delimited format used in spreadsheet applications
http://www.bom.gov.au/fwo/IDN60801/IDN60801.94715.axf

JavaScript Object Notation format (JSON) in row-major order
http://www.bom.gov.au/fwo/IDN60801/IDN60801.94715.json